createdAt,value
2018-03-16T00:00:21.618Z,4.00
2018-03-16T00:01:21.635Z,8.00
2018-03-16T00:02:21.651Z,4.00
2018-03-16T00:03:21.668Z,4.00
2018-03-16T00:04:21.683Z,4.00
2018-03-16T00:05:21.700Z,4.00
2018-03-16T00:06:21.718Z,4.00
2018-03-16T00:07:21.739Z,4.00
2018-03-16T00:08:21.749Z,4.00
2018-03-16T00:09:21.765Z,4.00
2018-03-16T00:10:21.782Z,4.00
2018-03-16T00:11:21.799Z,4.00
2018-03-16T00:12:21.815Z,4.00
2018-03-16T00:13:21.831Z,8.00
2018-03-16T00:14:21.850Z,4.00
2018-03-16T00:15:21.865Z,4.00
2018-03-16T00:16:21.881Z,4.00
2018-03-16T00:17:21.897Z,4.00
2018-03-16T00:18:21.913Z,4.00
2018-03-16T00:19:21.931Z,4.00
2018-03-16T00:20:21.946Z,4.00
2018-03-16T00:21:21.963Z,4.00
2018-03-16T00:22:21.979Z,4.00
2018-03-16T00:23:21.995Z,4.00
2018-03-16T00:24:22.014Z,4.00
2018-03-16T00:25:22.028Z,4.00
2018-03-16T00:26:22.044Z,8.00
2018-03-16T00:27:22.060Z,4.00
2018-03-16T00:28:22.077Z,4.00
2018-03-16T00:29:22.092Z,8.00
2018-03-16T00:30:22.109Z,4.00
2018-03-16T00:31:22.125Z,4.00
2018-03-16T00:32:22.142Z,4.00
2018-03-16T00:33:22.158Z,4.00
2018-03-16T00:34:22.174Z,4.00
2018-03-16T00:35:22.190Z,4.00
2018-03-16T00:36:22.205Z,4.00
2018-03-16T00:37:22.223Z,4.00
2018-03-16T00:38:22.239Z,4.00
2018-03-16T00:39:22.255Z,4.00
2018-03-16T00:40:22.270Z,4.00
2018-03-16T00:41:22.286Z,4.00
2018-03-16T00:42:22.308Z,4.00
2018-03-16T00:43:22.571Z,4.00
2018-03-16T00:44:22.337Z,4.00
2018-03-16T00:45:22.350Z,4.00
2018-03-16T00:46:22.368Z,4.00
2018-03-16T00:47:22.383Z,4.00
2018-03-16T00:48:22.398Z,4.00
2018-03-16T00:49:22.415Z,4.00
2018-03-16T00:50:22.431Z,4.00
2018-03-16T00:51:22.489Z,4.00
2018-03-16T00:52:22.464Z,4.00
2018-03-16T00:53:22.479Z,4.00
2018-03-16T00:54:22.496Z,4.00
2018-03-16T00:55:22.512Z,4.00
2018-03-16T00:56:22.528Z,4.00
2018-03-16T00:57:22.544Z,4.00
2018-03-16T00:58:22.564Z,4.00
2018-03-16T00:59:22.583Z,4.00
2018-03-16T01:00:22.593Z,4.00
2018-03-16T01:01:22.612Z,4.00
2018-03-16T01:02:22.625Z,4.00
2018-03-16T01:03:22.641Z,4.00
2018-03-16T01:04:22.657Z,4.00
2018-03-16T01:05:22.673Z,4.00
2018-03-16T01:06:22.689Z,4.00
2018-03-16T01:07:22.705Z,4.00
2018-03-16T01:08:22.720Z,4.00
2018-03-16T01:09:22.737Z,4.00
2018-03-16T01:10:22.753Z,4.00
2018-03-16T01:11:22.769Z,4.00
2018-03-16T01:12:22.786Z,4.00
2018-03-16T01:13:22.801Z,4.00
2018-03-16T01:14:22.817Z,4.00
2018-03-16T01:15:22.834Z,4.00
2018-03-16T01:16:22.850Z,4.00
2018-03-16T01:17:22.866Z,4.00
2018-03-16T01:18:22.882Z,4.00
2018-03-16T01:19:22.898Z,4.00
2018-03-16T01:20:22.915Z,4.00
2018-03-16T01:21:22.930Z,4.00
2018-03-16T01:22:22.946Z,4.00
2018-03-16T01:23:22.962Z,4.00
2018-03-16T01:24:22.978Z,4.00
2018-03-16T01:25:22.996Z,4.00
2018-03-16T01:26:23.009Z,4.00
2018-03-16T01:27:23.026Z,4.00
2018-03-16T01:28:23.042Z,4.00
2018-03-16T01:29:23.062Z,4.00
2018-03-16T01:30:23.075Z,4.00
2018-03-16T01:31:23.293Z,4.00
2018-03-16T01:32:23.113Z,4.00
2018-03-16T01:33:23.122Z,4.00
2018-03-16T01:34:23.139Z,4.00
2018-03-16T01:35:23.155Z,4.00
2018-03-16T01:36:23.171Z,4.00
2018-03-16T01:37:23.187Z,4.00
2018-03-16T01:38:23.205Z,4.00
2018-03-16T01:39:23.220Z,4.00
2018-03-16T01:40:23.235Z,4.00
2018-03-16T01:41:23.252Z,4.00
2018-03-16T01:42:23.269Z,4.00
2018-03-16T01:43:23.285Z,4.00
2018-03-16T01:44:23.298Z,4.00
2018-03-16T01:45:23.315Z,4.00
2018-03-16T01:46:23.332Z,4.00
2018-03-16T01:47:23.350Z,4.00
2018-03-16T01:48:23.364Z,4.00
2018-03-16T01:49:23.380Z,4.00
2018-03-16T01:50:23.398Z,4.00
2018-03-16T01:51:23.414Z,4.00
2018-03-16T01:52:23.428Z,4.00
2018-03-16T01:53:23.445Z,4.00
2018-03-16T01:54:23.462Z,4.00
2018-03-16T01:55:23.480Z,4.00
2018-03-16T01:56:23.495Z,4.00
2018-03-16T01:57:23.510Z,4.00
2018-03-16T01:58:23.525Z,4.00
2018-03-16T01:59:23.541Z,4.00
2018-03-16T02:00:23.558Z,4.00
2018-03-16T02:01:23.573Z,4.00
2018-03-16T02:02:23.589Z,4.00
2018-03-16T02:03:23.605Z,4.00
2018-03-16T02:04:23.621Z,4.00
2018-03-16T02:05:23.637Z,4.00
2018-03-16T02:06:23.652Z,4.00
2018-03-16T02:07:23.821Z,4.00
2018-03-16T02:08:23.685Z,4.00
2018-03-16T02:09:23.701Z,4.00
2018-03-16T02:10:23.718Z,4.00
2018-03-16T02:11:23.737Z,4.00
2018-03-16T02:12:23.752Z,4.00
2018-03-16T02:13:23.766Z,4.00
2018-03-16T02:14:23.781Z,4.00
2018-03-16T02:15:23.799Z,4.00
2018-03-16T02:16:23.812Z,4.00
2018-03-16T02:17:23.828Z,4.00
2018-03-16T02:18:23.846Z,4.00
2018-03-16T02:19:23.864Z,4.00
2018-03-16T02:20:23.878Z,4.00
2018-03-16T02:21:23.893Z,4.00
2018-03-16T02:22:23.910Z,4.00
2018-03-16T02:23:23.926Z,4.00
2018-03-16T02:24:23.941Z,4.00
2018-03-16T02:25:23.958Z,4.00
2018-03-16T02:26:23.974Z,4.00
2018-03-16T02:27:23.991Z,4.00
2018-03-16T02:28:24.005Z,4.00
2018-03-16T02:29:24.022Z,4.00
2018-03-16T02:30:24.038Z,4.00
2018-03-16T02:31:24.055Z,4.00
2018-03-16T02:32:24.069Z,4.00
2018-03-16T02:33:24.087Z,4.00
2018-03-16T02:34:24.103Z,4.00
2018-03-16T02:35:24.120Z,4.00
2018-03-16T02:36:24.134Z,4.00
2018-03-16T02:37:24.156Z,4.00
2018-03-16T02:38:24.167Z,4.00
2018-03-16T02:39:24.182Z,4.00
2018-03-16T02:40:24.199Z,4.00
2018-03-16T02:41:24.215Z,4.00
2018-03-16T02:42:24.231Z,4.00
2018-03-16T02:43:24.247Z,4.00
2018-03-16T02:44:24.261Z,4.00
2018-03-16T02:45:24.277Z,4.00
2018-03-16T02:46:24.300Z,4.00
2018-03-16T02:47:24.311Z,4.00
2018-03-16T02:48:24.325Z,4.00
2018-03-16T02:49:24.342Z,4.00
2018-03-16T02:50:24.357Z,4.00
2018-03-16T02:51:24.374Z,4.00
2018-03-16T02:52:24.389Z,4.00
2018-03-16T02:53:24.405Z,4.00
2018-03-16T02:54:24.421Z,4.00
2018-03-16T02:55:24.437Z,4.00
2018-03-16T02:56:24.455Z,4.00
2018-03-16T02:57:24.468Z,4.00
2018-03-16T02:58:24.492Z,4.00
2018-03-16T02:59:24.501Z,4.00
2018-03-16T03:00:24.515Z,4.00
2018-03-16T03:01:24.531Z,4.00
2018-03-16T03:02:24.570Z,4.00
2018-03-16T03:03:24.565Z,4.00
2018-03-16T03:04:24.581Z,4.00
2018-03-16T03:05:24.598Z,4.00
2018-03-16T03:06:24.612Z,4.00
2018-03-16T03:07:24.628Z,4.00
2018-03-16T03:08:24.642Z,4.00
2018-03-16T03:09:24.658Z,4.00
2018-03-16T03:10:24.674Z,4.00
2018-03-16T03:11:24.691Z,4.00
2018-03-16T03:12:24.707Z,4.00
2018-03-16T03:13:24.722Z,4.00
2018-03-16T03:14:24.738Z,4.00
2018-03-16T03:15:24.755Z,8.00
2018-03-16T03:16:24.770Z,4.00
2018-03-16T03:17:24.786Z,4.00
2018-03-16T03:18:24.802Z,4.00
2018-03-16T03:19:24.821Z,4.00
2018-03-16T03:20:24.833Z,4.00
2018-03-16T03:21:24.850Z,4.00
2018-03-16T03:22:24.915Z,4.00
2018-03-16T03:23:25.082Z,4.00
2018-03-16T03:24:24.897Z,4.00
2018-03-16T03:25:24.912Z,4.00
2018-03-16T03:26:24.929Z,4.00
2018-03-16T03:27:24.945Z,4.00
2018-03-16T03:28:24.966Z,4.00
2018-03-16T03:29:24.984Z,4.00
2018-03-16T03:30:25.002Z,4.00
2018-03-16T03:31:25.012Z,4.00
2018-03-16T03:32:25.024Z,4.00
2018-03-16T03:33:25.039Z,4.00
2018-03-16T03:34:25.056Z,4.00
2018-03-16T03:35:25.072Z,4.00
2018-03-16T03:36:25.087Z,4.00
2018-03-16T03:37:25.102Z,4.00
2018-03-16T03:38:25.119Z,4.00
2018-03-16T03:39:25.135Z,4.00
2018-03-16T03:40:25.153Z,4.00
2018-03-16T03:41:25.166Z,4.00
2018-03-16T03:42:25.182Z,4.00
2018-03-16T03:43:25.198Z,4.00
2018-03-16T03:44:25.234Z,4.00
2018-03-16T03:45:25.229Z,4.00
2018-03-16T03:46:25.246Z,4.00
2018-03-16T03:47:25.261Z,4.00
2018-03-16T03:48:25.377Z,4.00
2018-03-16T03:49:25.294Z,4.00
2018-03-16T03:50:25.310Z,4.00
2018-03-16T03:51:25.323Z,4.00
2018-03-16T03:52:25.340Z,4.00
2018-03-16T03:53:25.370Z,4.00
2018-03-16T03:54:25.372Z,4.00
2018-03-16T03:55:25.387Z,4.00
2018-03-16T03:56:25.402Z,4.00
2018-03-16T03:57:25.419Z,4.00
2018-03-16T03:58:25.435Z,4.00
2018-03-16T03:59:25.451Z,4.00
2018-03-16T04:00:25.468Z,4.00
2018-03-16T04:01:25.481Z,4.00
2018-03-16T04:02:25.498Z,4.00
2018-03-16T04:03:25.513Z,4.00
2018-03-16T04:04:25.528Z,4.00
2018-03-16T04:05:25.545Z,4.00
2018-03-16T04:06:25.561Z,4.00
2018-03-16T04:07:25.577Z,4.00
2018-03-16T04:08:25.592Z,4.00
2018-03-16T04:09:25.610Z,4.00
2018-03-16T04:10:25.624Z,4.00
2018-03-16T04:11:25.639Z,4.00
2018-03-16T04:12:25.659Z,4.00
2018-03-16T04:13:25.671Z,4.00
2018-03-16T04:14:25.720Z,4.00
2018-03-16T04:15:25.705Z,4.00
2018-03-16T04:16:25.720Z,4.00
2018-03-16T04:17:25.732Z,4.00
2018-03-16T04:18:25.749Z,4.00
2018-03-16T04:19:25.766Z,4.00
2018-03-16T04:20:25.781Z,4.00
2018-03-16T04:21:25.797Z,4.00
2018-03-16T04:22:25.811Z,4.00
2018-03-16T04:23:25.828Z,4.00
2018-03-16T04:24:25.843Z,4.00
2018-03-16T04:25:25.858Z,4.00
2018-03-16T04:26:25.875Z,4.00
2018-03-16T04:27:25.891Z,4.00
2018-03-16T04:28:25.906Z,4.00
2018-03-16T04:29:25.956Z,4.00
2018-03-16T04:30:25.937Z,4.00
2018-03-16T04:31:25.955Z,4.00
2018-03-16T04:32:25.969Z,4.00
2018-03-16T04:33:25.984Z,4.00
2018-03-16T04:34:26.002Z,4.00
2018-03-16T04:35:26.019Z,4.00
2018-03-16T04:36:26.031Z,4.00
2018-03-16T04:37:26.048Z,4.00
2018-03-16T04:38:26.064Z,4.00
2018-03-16T04:39:26.079Z,4.00
2018-03-16T04:40:26.094Z,4.00
2018-03-16T04:41:26.110Z,4.00
2018-03-16T04:42:26.133Z,4.00
2018-03-16T04:43:26.244Z,4.00
2018-03-16T04:44:26.157Z,4.00
2018-03-16T04:45:26.173Z,4.00
2018-03-16T04:46:26.189Z,4.00
2018-03-16T04:47:26.205Z,4.00
2018-03-16T04:48:26.220Z,4.00
2018-03-16T04:49:26.236Z,4.00
2018-03-16T04:50:26.252Z,4.00
2018-03-16T04:51:26.267Z,4.00
2018-03-16T04:52:26.282Z,4.00
2018-03-16T04:53:26.299Z,4.00
2018-03-16T04:54:26.313Z,4.00
2018-03-16T04:55:26.329Z,4.00
2018-03-16T04:56:26.344Z,4.00
2018-03-16T04:57:26.360Z,4.00
2018-03-16T04:58:26.377Z,4.00
2018-03-16T04:59:26.392Z,4.00
2018-03-16T05:00:26.407Z,4.00
2018-03-16T05:01:26.423Z,4.00
2018-03-16T05:02:26.439Z,4.00
2018-03-16T05:03:26.459Z,4.00
2018-03-16T05:04:26.469Z,4.00
2018-03-16T05:05:26.489Z,4.00
2018-03-16T05:06:26.501Z,4.00
2018-03-16T05:07:26.517Z,4.00
2018-03-16T05:08:26.532Z,4.00
2018-03-16T05:09:26.551Z,4.00
2018-03-16T05:10:26.565Z,4.00
2018-03-16T05:11:26.581Z,4.00
2018-03-16T05:12:26.594Z,4.00
2018-03-16T05:13:26.610Z,4.00
2018-03-16T05:14:26.627Z,4.00
2018-03-16T05:15:26.641Z,4.00
2018-03-16T05:16:26.656Z,4.00
2018-03-16T05:17:26.673Z,4.00
2018-03-16T05:18:26.688Z,4.00
2018-03-16T05:19:26.704Z,4.00
2018-03-16T05:20:26.720Z,8.00
2018-03-16T05:21:26.734Z,8.00
2018-03-16T05:22:26.751Z,8.00
2018-03-16T05:23:26.768Z,8.00
2018-03-16T05:24:26.783Z,8.00
2018-03-16T05:25:26.801Z,4.00
2018-03-16T05:26:26.813Z,8.00
2018-03-16T05:27:26.829Z,8.00
2018-03-16T05:28:26.844Z,8.00
2018-03-16T05:29:26.863Z,8.00
2018-03-16T05:30:26.876Z,8.00
2018-03-16T05:31:26.893Z,8.00
2018-03-16T05:32:26.907Z,8.00
2018-03-16T05:33:26.925Z,12.00
2018-03-16T05:34:26.938Z,12.00
2018-03-16T05:35:26.954Z,16.00
2018-03-16T05:36:26.969Z,16.00
2018-03-16T05:37:26.984Z,16.00
2018-03-16T05:38:27.000Z,16.00
2018-03-16T05:39:27.017Z,12.00
2018-03-16T05:40:27.030Z,12.00
2018-03-16T05:41:27.047Z,16.00
2018-03-16T05:42:27.066Z,16.00
2018-03-16T05:43:27.079Z,20.00
2018-03-16T05:44:27.093Z,24.00
2018-03-16T05:45:27.109Z,24.00
2018-03-16T05:46:27.124Z,28.00
2018-03-16T05:47:27.141Z,28.00
2018-03-16T05:48:27.156Z,32.00
2018-03-16T05:49:27.172Z,36.00
2018-03-16T05:50:27.190Z,36.00
2018-03-16T05:51:27.205Z,44.00
2018-03-16T05:52:27.218Z,48.00
2018-03-16T05:53:27.236Z,52.00
2018-03-16T05:54:27.451Z,52.00
2018-03-16T05:55:27.266Z,60.00
2018-03-16T05:56:27.280Z,56.00
2018-03-16T05:57:27.297Z,64.00
2018-03-16T05:58:27.312Z,64.00
2018-03-16T05:59:27.329Z,64.00
2018-03-16T06:00:27.345Z,68.00
2018-03-16T06:01:27.359Z,72.00
2018-03-16T06:02:27.375Z,84.00
2018-03-16T06:03:27.391Z,88.00
2018-03-16T06:04:27.406Z,88.00
2018-03-16T06:05:27.422Z,124.00
2018-03-16T06:06:27.437Z,132.00
2018-03-16T06:07:27.453Z,116.00
2018-03-16T06:08:27.468Z,136.00
2018-03-16T06:09:27.484Z,152.00
2018-03-16T06:10:27.499Z,144.00
2018-03-16T06:11:27.515Z,144.00
2018-03-16T06:12:27.530Z,140.00
2018-03-16T06:13:27.546Z,144.00
2018-03-16T06:14:27.561Z,164.00
2018-03-16T06:15:27.577Z,164.00
2018-03-16T06:16:27.592Z,184.00
2018-03-16T06:17:27.608Z,204.00
2018-03-16T06:18:27.626Z,196.00
2018-03-16T06:19:27.639Z,196.00
2018-03-16T06:20:27.658Z,200.00
2018-03-16T06:21:27.675Z,220.00
2018-03-16T06:22:27.686Z,232.00
2018-03-16T06:23:27.702Z,248.00
2018-03-16T06:24:27.716Z,236.00
2018-03-16T06:25:27.732Z,220.00
2018-03-16T06:26:27.749Z,224.00
2018-03-16T06:27:27.763Z,224.00
2018-03-16T06:28:27.779Z,276.00
2018-03-16T06:29:27.796Z,280.00
2018-03-16T06:30:27.811Z,252.00
2018-03-16T06:31:27.826Z,284.00
2018-03-16T06:32:27.841Z,248.00
2018-03-16T06:33:27.856Z,208.00
2018-03-16T06:34:27.873Z,252.00
2018-03-16T06:35:27.888Z,296.00
2018-03-16T06:36:27.903Z,252.00
2018-03-16T06:37:27.918Z,244.00
2018-03-16T06:38:27.934Z,244.00
2018-03-16T06:39:27.949Z,276.00
2018-03-16T06:40:27.965Z,276.00
2018-03-16T06:41:27.980Z,280.00
2018-03-16T06:42:27.996Z,320.00
2018-03-16T06:43:28.012Z,316.00
2018-03-16T06:44:28.028Z,312.00
2018-03-16T06:45:28.043Z,368.00
2018-03-16T06:46:28.058Z,320.00
2018-03-16T06:47:28.074Z,312.00
2018-03-16T06:48:28.089Z,352.00
2018-03-16T06:49:28.105Z,356.00
2018-03-16T06:50:28.120Z,380.00
2018-03-16T06:51:28.136Z,360.00
2018-03-16T06:52:28.150Z,356.00
2018-03-16T06:53:28.167Z,372.00
2018-03-16T06:54:28.193Z,396.00
2018-03-16T06:55:28.198Z,424.00
2018-03-16T06:56:28.215Z,436.00
2018-03-16T06:57:28.229Z,444.00
2018-03-16T06:58:28.245Z,460.00
2018-03-16T06:59:28.260Z,424.00
2018-03-16T07:00:28.275Z,480.00
2018-03-16T07:01:28.291Z,456.00
2018-03-16T07:02:28.306Z,440.00
2018-03-16T07:03:28.323Z,428.00
2018-03-16T07:04:28.338Z,452.00
2018-03-16T07:05:28.354Z,468.00
2018-03-16T07:06:28.368Z,488.00
2018-03-16T07:07:28.384Z,472.00
2018-03-16T07:08:28.399Z,512.00
2018-03-16T07:09:28.415Z,556.00
2018-03-16T07:10:28.432Z,552.00
2018-03-16T07:11:28.546Z,552.00
2018-03-16T07:12:28.461Z,588.00
2018-03-16T07:13:28.477Z,576.00
2018-03-16T07:14:28.492Z,580.00
2018-03-16T07:15:28.509Z,640.00
2018-03-16T07:16:28.523Z,636.00
2018-03-16T07:17:28.542Z,672.00
2018-03-16T07:18:28.554Z,692.00
2018-03-16T07:19:28.572Z,684.00
2018-03-16T07:20:28.584Z,676.00
2018-03-16T07:21:28.601Z,740.00
2018-03-16T07:22:28.618Z,736.00
2018-03-16T07:23:28.632Z,672.00
2018-03-16T07:24:28.647Z,720.00
2018-03-16T07:25:28.663Z,852.00
2018-03-16T07:26:28.680Z,904.00
2018-03-16T07:27:28.695Z,948.00
2018-03-16T07:28:28.710Z,896.00
2018-03-16T07:29:28.726Z,888.00
2018-03-16T07:30:28.741Z,856.00
2018-03-16T07:31:28.757Z,928.00
2018-03-16T07:32:28.771Z,932.00
2018-03-16T07:33:28.790Z,784.00
2018-03-16T07:34:28.802Z,804.00
2018-03-16T07:35:28.819Z,836.00
2018-03-16T07:36:28.834Z,772.00
2018-03-16T07:37:28.850Z,912.00
2018-03-16T07:38:28.866Z,836.00
2018-03-16T07:39:28.881Z,872.00
2018-03-16T07:40:28.897Z,904.00
2018-03-16T07:41:28.912Z,908.00
2018-03-16T07:42:28.929Z,968.00
2018-03-16T07:43:28.946Z,996.00
2018-03-16T07:44:28.958Z,1068.00
2018-03-16T07:45:28.974Z,1080.00
2018-03-16T07:46:28.990Z,1020.00
2018-03-16T07:47:29.004Z,1000.00
2018-03-16T07:48:29.024Z,1120.00
2018-03-16T07:49:29.035Z,1160.00
2018-03-16T07:50:29.055Z,1184.00
2018-03-16T07:51:29.067Z,1200.00
2018-03-16T07:52:29.082Z,1288.00
2018-03-16T07:53:29.097Z,1304.00
2018-03-16T07:54:29.114Z,1344.00
2018-03-16T07:55:29.130Z,1300.00
2018-03-16T07:56:29.144Z,1336.00
2018-03-16T07:57:29.159Z,1332.00
2018-03-16T07:58:29.174Z,1352.00
2018-03-16T07:59:29.192Z,1260.00
2018-03-16T08:00:29.206Z,1300.00
2018-03-16T08:01:29.222Z,1228.00
2018-03-16T08:02:29.238Z,1140.00
2018-03-16T08:03:29.255Z,1136.00
2018-03-16T08:04:29.269Z,1020.00
2018-03-16T08:05:29.284Z,1000.00
2018-03-16T08:06:29.301Z,1112.00
2018-03-16T08:07:29.316Z,1188.00
2018-03-16T08:08:29.332Z,980.00
2018-03-16T08:09:29.346Z,868.00
2018-03-16T08:10:29.362Z,1036.00
2018-03-16T08:11:29.377Z,976.00
2018-03-16T08:12:29.394Z,1004.00
2018-03-16T08:13:29.410Z,904.00
2018-03-16T08:14:29.424Z,1032.00
2018-03-16T08:15:29.440Z,936.00
2018-03-16T08:16:29.456Z,944.00
2018-03-16T08:17:29.471Z,1048.00
2018-03-16T08:18:29.486Z,1036.00
2018-03-16T08:19:29.503Z,1100.00
2018-03-16T08:20:29.518Z,1104.00
2018-03-16T08:21:29.532Z,1240.00
2018-03-16T08:22:29.569Z,1132.00
2018-03-16T08:23:29.667Z,1096.00
2018-03-16T08:24:29.580Z,1164.00
2018-03-16T08:25:29.595Z,1188.00
2018-03-16T08:26:29.610Z,1280.00
2018-03-16T08:27:29.625Z,1344.00
2018-03-16T08:28:29.641Z,1320.00
2018-03-16T08:29:29.656Z,1320.00
2018-03-16T08:30:29.673Z,1312.00
2018-03-16T08:31:29.687Z,1424.00
2018-03-16T08:32:29.705Z,1488.00
2018-03-16T08:33:29.718Z,1400.00
2018-03-16T08:34:29.734Z,1408.00
2018-03-16T08:35:29.749Z,1492.00
2018-03-16T08:36:29.764Z,1436.00
2018-03-16T08:37:29.780Z,1404.00
2018-03-16T08:38:29.799Z,1492.00
2018-03-16T08:39:29.811Z,1516.00
2018-03-16T08:40:29.828Z,1556.00
2018-03-16T08:41:29.842Z,1540.00
2018-03-16T08:42:29.857Z,1580.00
2018-03-16T08:43:29.872Z,1448.00
2018-03-16T08:44:29.888Z,1388.00
2018-03-16T08:45:29.903Z,1220.00
2018-03-16T08:46:29.920Z,1312.00
2018-03-16T08:47:29.934Z,1120.00
2018-03-16T08:48:29.950Z,1256.00
2018-03-16T08:49:29.964Z,1300.00
2018-03-16T08:50:29.979Z,1132.00
2018-03-16T08:51:29.996Z,1200.00
2018-03-16T08:52:30.012Z,1288.00
2018-03-16T08:53:30.026Z,1400.00
2018-03-16T08:54:30.049Z,1344.00
2018-03-16T08:55:30.068Z,1284.00
2018-03-16T08:56:30.076Z,1308.00
2018-03-16T08:57:30.087Z,1404.00
2018-03-16T08:58:30.104Z,1480.00
2018-03-16T08:59:30.119Z,1468.00
2018-03-16T09:00:30.134Z,1540.00
2018-03-16T09:01:30.149Z,1732.00
2018-03-16T09:02:30.165Z,1344.00
2018-03-16T09:03:30.220Z,1400.00
2018-03-16T09:04:30.195Z,1568.00
2018-03-16T09:05:30.211Z,1664.00
2018-03-16T09:06:30.227Z,1480.00
2018-03-16T09:07:30.244Z,1476.00
2018-03-16T09:08:30.257Z,1460.00
2018-03-16T09:09:30.274Z,1448.00
2018-03-16T09:10:30.289Z,1644.00
2018-03-16T09:11:30.304Z,1660.00
2018-03-16T09:12:30.351Z,1596.00
2018-03-16T09:13:30.337Z,1640.00
2018-03-16T09:14:30.451Z,1828.00
2018-03-16T09:15:30.366Z,1644.00
2018-03-16T09:16:30.379Z,1620.00
2018-03-16T09:17:30.397Z,1344.00
2018-03-16T09:18:30.412Z,1588.00
2018-03-16T09:19:30.428Z,1340.00
2018-03-16T09:20:30.448Z,1264.00
2018-03-16T09:21:30.459Z,1476.00
2018-03-16T09:22:30.474Z,1496.00
2018-03-16T09:23:30.491Z,1256.00
2018-03-16T09:24:30.505Z,1488.00
2018-03-16T09:25:30.540Z,1524.00
2018-03-16T09:26:30.535Z,1744.00
2018-03-16T09:27:30.558Z,1708.00
2018-03-16T09:28:30.566Z,1760.00
2018-03-16T09:29:30.582Z,1716.00
2018-03-16T09:30:30.597Z,1872.00
2018-03-16T09:31:30.613Z,1732.00
2018-03-16T09:32:30.628Z,1800.00
2018-03-16T09:33:30.644Z,2156.00
2018-03-16T09:34:30.659Z,1712.00
2018-03-16T09:35:30.676Z,2000.00
2018-03-16T09:36:30.691Z,1740.00
2018-03-16T09:37:30.706Z,1836.00
2018-03-16T09:38:30.721Z,2088.00
2018-03-16T09:39:30.740Z,1960.00
2018-03-16T09:40:30.752Z,2036.00
2018-03-16T09:41:30.768Z,2204.00
2018-03-16T09:42:30.782Z,2120.00
2018-03-16T09:43:30.800Z,1900.00
2018-03-16T09:44:30.814Z,1948.00
2018-03-16T09:45:30.828Z,2172.00
2018-03-16T09:46:30.844Z,1896.00
2018-03-16T09:47:30.863Z,1864.00
2018-03-16T09:48:30.881Z,1852.00
2018-03-16T09:49:30.891Z,2160.00
2018-03-16T09:50:30.906Z,1880.00
2018-03-16T09:51:30.924Z,1828.00
2018-03-16T09:52:30.936Z,1780.00
2018-03-16T09:53:30.952Z,1640.00
2018-03-16T09:54:30.967Z,1776.00
2018-03-16T09:55:30.983Z,1568.00
2018-03-16T09:56:30.997Z,1940.00
2018-03-16T09:57:31.014Z,2028.00
2018-03-16T09:58:31.032Z,2184.00
2018-03-16T09:59:31.045Z,2160.00
2018-03-16T10:00:31.059Z,2348.00
2018-03-16T10:01:31.075Z,2208.00
2018-03-16T10:02:31.095Z,2156.00
2018-03-16T10:03:31.105Z,2060.00
2018-03-16T10:04:31.120Z,2496.00
2018-03-16T10:05:31.136Z,2484.00
2018-03-16T10:06:31.151Z,2396.00
2018-03-16T10:07:31.167Z,2656.00
2018-03-16T10:08:31.184Z,2620.00
2018-03-16T10:09:31.197Z,2652.00
2018-03-16T10:10:31.213Z,2852.00
2018-03-16T10:11:31.229Z,2592.00
2018-03-16T10:12:31.245Z,2724.00
2018-03-16T10:13:31.258Z,2468.00
2018-03-16T10:14:31.274Z,2368.00
2018-03-16T10:15:31.290Z,2816.00
2018-03-16T10:16:31.302Z,2416.00
2018-03-16T10:17:31.318Z,2624.00
2018-03-16T10:18:31.334Z,2544.00
2018-03-16T10:19:31.349Z,2460.00
2018-03-16T10:20:31.365Z,2468.00
2018-03-16T10:21:31.378Z,2584.00
2018-03-16T10:22:31.395Z,2756.00
2018-03-16T10:23:31.408Z,2868.00
2018-03-16T10:24:31.424Z,2904.00
2018-03-16T10:25:31.439Z,2584.00
2018-03-16T10:26:31.455Z,2708.00
2018-03-16T10:27:31.470Z,2780.00
2018-03-16T10:28:31.486Z,2944.00
2018-03-16T10:29:31.500Z,3224.00
2018-03-16T10:30:31.515Z,2836.00
2018-03-16T10:31:31.530Z,2792.00
2018-03-16T10:32:31.547Z,3048.00
2018-03-16T10:33:31.559Z,2884.00
2018-03-16T10:34:31.575Z,3016.00
2018-03-16T10:35:31.592Z,3156.00
2018-03-16T10:36:31.605Z,3228.00
2018-03-16T10:37:31.620Z,3316.00
2018-03-16T10:38:31.636Z,3400.00
2018-03-16T10:39:31.651Z,3276.00
2018-03-16T10:40:31.666Z,3100.00
2018-03-16T10:41:31.681Z,2960.00
2018-03-16T10:42:31.697Z,3500.00
2018-03-16T10:43:31.712Z,2936.00
2018-03-16T10:44:31.726Z,3428.00
2018-03-16T10:45:31.742Z,3584.00
2018-03-16T10:46:31.758Z,3268.00
2018-03-16T10:47:31.772Z,3404.00
2018-03-16T10:48:31.787Z,2940.00
2018-03-16T10:49:31.808Z,2928.00
2018-03-16T10:50:31.817Z,2884.00
2018-03-16T10:51:31.833Z,3108.00
2018-03-16T10:52:31.847Z,2708.00
2018-03-16T10:53:31.864Z,3404.00
2018-03-16T10:54:31.878Z,2964.00
2018-03-16T10:55:31.898Z,2824.00
2018-03-16T10:56:31.908Z,3060.00
2018-03-16T10:57:31.924Z,3116.00
2018-03-16T10:58:31.941Z,2820.00
2018-03-16T10:59:31.955Z,2916.00
2018-03-16T11:00:31.969Z,3408.00
2018-03-16T11:01:31.985Z,3444.00
2018-03-16T11:02:32.001Z,3852.00
2018-03-16T11:03:32.016Z,3536.00
2018-03-16T11:04:32.029Z,3316.00
2018-03-16T11:05:32.046Z,3576.00
2018-03-16T11:06:32.061Z,3648.00
2018-03-16T11:07:32.076Z,3444.00
2018-03-16T11:08:32.091Z,3736.00
2018-03-16T11:09:32.106Z,3880.00
2018-03-16T11:10:32.124Z,3724.00
2018-03-16T11:11:32.138Z,3292.00
2018-03-16T11:12:32.153Z,3012.00
2018-03-16T11:13:32.167Z,3228.00
2018-03-16T11:14:32.184Z,3440.00
2018-03-16T11:15:32.200Z,3168.00
2018-03-16T11:16:32.217Z,3060.00
2018-03-16T11:17:32.233Z,3396.00
2018-03-16T11:18:32.245Z,3332.00
2018-03-16T11:19:32.262Z,3628.00
2018-03-16T11:20:32.275Z,3480.00
2018-03-16T11:21:32.291Z,3336.00
2018-03-16T11:22:32.306Z,3716.00
2018-03-16T11:23:32.324Z,3092.00
2018-03-16T11:24:32.338Z,3592.00
2018-03-16T11:25:32.352Z,2828.00
2018-03-16T11:26:32.368Z,3336.00
2018-03-16T11:27:32.386Z,3572.00
2018-03-16T11:28:32.402Z,3756.00
2018-03-16T11:29:32.418Z,3316.00
2018-03-16T11:30:32.434Z,3168.00
2018-03-16T11:31:32.505Z,3108.00
2018-03-16T11:32:32.461Z,3448.00
2018-03-16T11:33:32.506Z,3792.00
2018-03-16T11:34:32.840Z,4152.00
2018-03-16T11:35:32.508Z,3728.00
2018-03-16T11:36:32.643Z,3516.00
2018-03-16T11:37:32.560Z,3652.00
2018-03-16T11:38:32.554Z,3640.00
2018-03-16T11:39:32.573Z,3948.00
2018-03-16T11:40:32.584Z,3936.00
2018-03-16T11:41:32.606Z,3892.00
2018-03-16T11:42:32.616Z,3976.00
2018-03-16T11:43:32.629Z,3664.00
2018-03-16T11:44:32.655Z,3812.00
2018-03-16T11:45:32.660Z,3580.00
2018-03-16T11:46:32.673Z,3532.00
2018-03-16T11:47:32.790Z,3556.00
2018-03-16T11:48:32.710Z,3644.00
2018-03-16T11:49:32.731Z,3632.00
2018-03-16T11:50:32.735Z,3360.00
2018-03-16T11:51:32.788Z,3432.00
2018-03-16T11:52:32.765Z,3508.00
2018-03-16T11:53:32.830Z,3312.00
2018-03-16T11:54:32.812Z,3640.00
2018-03-16T11:55:32.892Z,3416.00
2018-03-16T11:56:32.834Z,3320.00
2018-03-16T11:57:32.845Z,3388.00
2018-03-16T11:58:32.909Z,3444.00
2018-03-16T11:59:32.874Z,2924.00
2018-03-16T12:00:32.909Z,3012.00
2018-03-16T12:01:32.905Z,2928.00
2018-03-16T12:02:32.919Z,3304.00
2018-03-16T12:03:32.935Z,3228.00
2018-03-16T12:04:32.954Z,3168.00
2018-03-16T12:05:32.981Z,2936.00
2018-03-16T12:06:32.990Z,2932.00
2018-03-16T12:07:33.021Z,2988.00
2018-03-16T12:08:33.086Z,3040.00
2018-03-16T12:09:33.027Z,3372.00
2018-03-16T12:10:33.067Z,3040.00
2018-03-16T12:11:33.126Z,3236.00
2018-03-16T12:12:33.074Z,3196.00
2018-03-16T12:13:33.097Z,3016.00
2018-03-16T12:14:33.108Z,3024.00
2018-03-16T12:15:33.151Z,3080.00
2018-03-16T12:16:33.184Z,3320.00
2018-03-16T12:17:33.165Z,3448.00
2018-03-16T12:18:33.203Z,3368.00
2018-03-16T12:19:33.252Z,3300.00
2018-03-16T12:20:33.212Z,3516.00
2018-03-16T12:21:33.213Z,3552.00
2018-03-16T12:22:33.224Z,4352.00
2018-03-16T12:23:33.241Z,3980.00
2018-03-16T12:24:33.316Z,3788.00
2018-03-16T12:25:33.422Z,3616.00
2018-03-16T12:26:33.353Z,3040.00
2018-03-16T12:27:33.358Z,2884.00
2018-03-16T12:28:49.476Z,2488.00
2018-03-16T12:29:33.333Z,2736.00
2018-03-16T12:30:33.457Z,2704.00
2018-03-16T12:31:33.370Z,2508.00
2018-03-16T12:32:33.427Z,2428.00
2018-03-16T12:33:33.459Z,2292.00
2018-03-16T12:34:33.435Z,2468.00
2018-03-16T12:35:33.502Z,2316.00
2018-03-16T12:36:33.437Z,2504.00
2018-03-16T12:37:33.532Z,2720.00
2018-03-16T12:38:33.479Z,2376.00
2018-03-16T12:39:33.490Z,2652.00
2018-03-16T12:40:33.519Z,2200.00
2018-03-16T12:41:33.520Z,2380.00